KOWD/OWD METAR and TAF weather

Enter ICAO airport designator
Station Type Date Time Source
KOWD METAR 2019/04/18 09:53 UTC NOAA

KOWD 180953Z AUTO 00000KT 10SM BKN110 03/00 A3027 RMK AO2 SLP250 T00280000 TSNO


Station Type Date Time Source
KOWD Decoded METAR 2019/04/18 09:53 UTC NOAA

NORWOOD MEMORIAL AIRPORT, MA, United States (KOWD) 42-11N 71-10W 19M
Apr 18, 2019 - 05:53 AM EDT / 2019.04.18 0953 UTC
Wind: Calm:0
Visibility: 10 mile(s):0
Sky conditions: mostly cloudy
Temperature: 37.0 F (2.8 C)
Dew Point: 32.0 F (0.0 C)
Relative Humidity: 81%
Pressure (altimeter): 30.27 in. Hg (1025 hPa)
ob: KOWD 180953Z AUTO 00000KT 10SM BKN110 03/00 A3027 RMK AO2 SLP250 T00280000 TSNO
cycle: 10

Station Type Date Time Source
KOWD TAF UTC NOAA

Error!

Example: see airport list